Time;durP1;ratioP1;P1;durP2;ratioP2;P2;SDS_P1;SDS_P2;PMS_P1;PMS_P2;Temp;Humidity;BMP_temperature;BMP_pressure;BME280_temperature;BME280_humidity;BME280_pressure;Samples;Min_cycle;Max_cycle;Signal;HPM_P1;HPM_P2
2023/12/19 00:00:38;;;;;;;7.50;4.80;;;;;;;2.83;100.00;100875.59;109439;1252;59458;-62
2023/12/19 00:03:05;;;;;;;8.20;5.00;;;;;;;2.84;100.00;100874.67;109437;1252;74654;-62
2023/12/19 00:05:33;;;;;;;6.50;4.40;;;;;;;2.84;100.00;100873.46;109449;1252;66970;-61
2023/12/19 00:08:01;;;;;;;6.50;4.20;;;;;;;2.86;100.00;100876.30;109351;1253;72761;-61
2023/12/19 00:10:29;;;;;;;8.10;5.70;;;;;;;2.87;100.00;100880.60;109401;1253;61031;-61
2023/12/19 00:12:57;;;;;;;8.50;4.80;;;;;;;2.87;100.00;100877.00;109364;1252;60103;-61
2023/12/19 00:15:25;;;;;;;6.60;4.40;;;;;;;2.88;100.00;100871.31;109370;1253;74666;-62
2023/12/19 00:17:52;;;;;;;6.60;4.30;;;;;;;2.87;100.00;100872.05;109317;1253;65627;-63
2023/12/19 00:20:20;;;;;;;7.60;4.80;;;;;;;2.86;100.00;100874.04;109383;1253;72620;-62
2023/12/19 00:22:48;;;;;;;7.40;4.40;;;;;;;2.87;100.00;100873.91;109383;1253;59654;-61
2023/12/19 00:25:15;;;;;;;7.30;4.70;;;;;;;2.89;100.00;100874.80;109385;1253;59056;-62
2023/12/19 00:27:43;;;;;;;7.20;4.50;;;;;;;2.88;100.00;100870.23;109406;1253;74775;-61
2023/12/19 00:30:11;;;;;;;8.10;5.10;;;;;;;2.88;100.00;100865.25;109330;1253;66277;-62
2023/12/19 00:32:39;;;;;;;7.30;4.70;;;;;;;2.86;100.00;100861.50;109366;1253;71055;-62
2023/12/19 00:35:08;;;;;;;7.60;4.50;;;;;;;2.86;100.00;100862.85;109360;1253;60920;-61
2023/12/19 00:37:36;;;;;;;8.40;4.60;;;;;;;2.85;100.00;100852.84;109419;1253;60714;-61
2023/12/19 00:40:05;;;;;;;9.10;5.30;;;;;;;2.84;100.00;100853.73;109325;1253;73452;-62
2023/12/19 00:42:33;;;;;;;8.30;5.10;;;;;;;2.85;100.00;100868.92;109395;1252;65742;-61
2023/12/19 00:45:00;;;;;;;7.40;4.40;;;;;;;2.85;100.00;100876.31;109384;1253;72858;-61
2023/12/19 00:47:28;;;;;;;9.60;6.00;;;;;;;2.87;100.00;100880.11;109383;1253;60880;-61
2023/12/19 00:49:56;;;;;;;9.00;5.00;;;;;;;2.90;100.00;100880.39;109304;1253;60146;-61
2023/12/19 00:52:27;;;;;;;7.40;4.70;;;;;;;2.89;100.00;100875.15;109374;1253;74769;-61
2023/12/19 00:54:55;;;;;;;6.40;4.00;;;;;;;2.90;100.00;100872.11;109386;1253;67256;-62
2023/12/19 00:57:23;;;;;;;6.90;4.10;;;;;;;2.91;100.00;100875.54;109391;1253;72787;-61
2023/12/19 00:59:50;;;;;;;7.50;4.70;;;;;;;2.88;100.00;100878.52;109333;1253;59837;-62
2023/12/19 01:02:18;;;;;;;7.70;5.00;;;;;;;2.88;100.00;100885.06;109437;1253;59388;-61
2023/12/19 01:04:45;;;;;;;8.20;5.20;;;;;;;2.86;100.00;100883.08;109420;1253;74731;-62
2023/12/19 01:07:13;;;;;;;7.30;4.60;;;;;;;2.86;100.00;100883.77;109409;1253;67221;-61
2023/12/19 01:09:41;;;;;;;6.30;4.10;;;;;;;2.88;100.00;100879.05;109372;1253;72736;-61
2023/12/19 01:12:09;;;;;;;7.10;4.20;;;;;;;2.87;100.00;100880.76;109316;1253;59379;-62
2023/12/19 01:14:36;;;;;;;7.00;4.20;;;;;;;2.84;100.00;100883.60;109414;1252;60068;-61
2023/12/19 01:17:04;;;;;;;6.90;4.40;;;;;;;2.80;100.00;100886.48;109403;1253;73901;-61
2023/12/19 01:19:31;;;;;;;8.00;4.60;;;;;;;2.80;100.00;100894.23;109395;1253;65624;-61
2023/12/19 01:21:59;;;;;;;8.60;4.80;;;;;;;2.78;100.00;100897.29;109172;1253;71502;-62
2023/12/19 01:24:27;;;;;;;8.30;5.20;;;;;;;2.76;100.00;100898.30;109396;1253;59141;-61
2023/12/19 01:26:55;;;;;;;7.60;4.60;;;;;;;2.75;100.00;100896.98;109370;1253;60089;-61
2023/12/19 01:29:25;;;;;;;8.00;5.30;;;;;;;2.73;100.00;100898.71;109417;1253;74666;-61
2023/12/19 01:31:53;;;;;;;8.00;5.00;;;;;;;2.72;100.00;100897.42;109374;1253;65961;-61
2023/12/19 01:34:20;;;;;;;7.60;4.70;;;;;;;2.74;100.00;100899.52;109349;1253;73154;-61
2023/12/19 01:36:49;;;;;;;7.50;4.80;;;;;;;2.73;100.00;100895.61;109388;1253;60987;-62
2023/12/19 01:39:24;;;;;;;8.10;5.40;;;;;;;2.75;100.00;100894.13;109427;1253;60376;-62
2023/12/19 01:41:52;;;;;;;7.30;4.90;;;;;;;2.76;100.00;100894.52;109388;1252;74677;-62
2023/12/19 01:44:20;;;;;;;8.70;4.90;;;;;;;2.77;100.00;100889.98;109132;1253;66873;-61
2023/12/19 01:46:47;;;;;;;9.40;5.10;;;;;;;2.80;100.00;100887.70;109407;1252;71441;-61
2023/12/19 01:49:15;;;;;;;7.70;5.10;;;;;;;2.81;100.00;100890.02;109374;1252;59730;-61
2023/12/19 01:51:43;;;;;;;8.00;4.70;;;;;;;2.80;100.00;100887.05;109391;1256;60130;-61
2023/12/19 01:54:10;;;;;;;7.40;4.60;;;;;;;2.80;100.00;100892.16;109422;1252;74767;-62
2023/12/19 01:56:38;;;;;;;9.30;5.20;;;;;;;2.81;100.00;100898.80;109390;1253;65981;-61
2023/12/19 01:59:06;;;;;;;9.00;5.50;;;;;;;2.80;100.00;100897.65;109226;1253;71411;-62
2023/12/19 02:01:34;;;;;;;8.60;5.40;;;;;;;2.79;100.00;100894.61;109424;1253;61088;-61
2023/12/19 02:04:02;;;;;;;7.50;5.00;;;;;;;2.79;100.00;100895.38;109397;1253;59139;-62
2023/12/19 02:06:33;;;;;;;8.30;5.50;;;;;;;2.78;100.00;100900.36;109344;1252;74668;-63
2023/12/19 02:09:01;;;;;;;7.90;4.70;;;;;;;2.77;100.00;100905.61;109211;1253;65809;-62
2023/12/19 02:11:28;;;;;;;7.70;4.60;;;;;;;2.75;100.00;100900.26;109420;1253;72751;-62
2023/12/19 02:13:58;;;;;;;7.30;4.50;;;;;;;2.73;100.00;100895.77;109361;1253;59672;-62
2023/12/19 02:16:26;;;;;;;7.80;4.90;;;;;;;2.74;100.00;100895.86;109364;1252;59598;-63
2023/12/19 02:19:04;;;;;;;7.40;4.30;;;;;;;2.74;100.00;100895.39;109403;1253;74688;-61
2023/12/19 02:21:32;;;;;;;7.00;4.00;;;;;;;2.72;100.00;100893.80;109415;1253;66933;-61
2023/12/19 02:24:00;;;;;;;7.90;4.80;;;;;;;2.70;100.00;100888.48;109424;1253;71423;-62
2023/12/19 02:26:28;;;;;;;7.90;4.50;;;;;;;2.69;100.00;100888.89;109361;1252;59458;-63
2023/12/19 02:28:56;;;;;;;7.60;4.70;;;;;;;2.67;100.00;100888.81;109264;1253;59110;-61
2023/12/19 02:31:24;;;;;;;7.30;4.80;;;;;;;2.66;100.00;100891.35;109381;1252;73230;-61
2023/12/19 02:33:52;;;;;;;7.50;4.50;;;;;;;2.65;100.00;100889.98;109385;1253;66331;-61
2023/12/19 02:36:19;;;;;;;7.00;4.20;;;;;;;2.66;100.00;100890.84;109339;1253;71709;-62
2023/12/19 02:38:47;;;;;;;7.40;4.10;;;;;;;2.64;100.00;100890.39;109397;1253;62997;-61
2023/12/19 02:41:14;;;;;;;8.20;4.50;;;;;;;2.66;100.00;100888.09;109422;1253;60079;-61
2023/12/19 02:43:42;;;;;;;6.50;4.20;;;;;;;2.67;100.00;100886.80;109385;1253;74763;-61
2023/12/19 02:46:22;;;;;;;8.00;4.50;;;;;;;2.65;100.00;100888.27;109376;1253;65676;-62
2023/12/19 02:48:51;;;;;;;7.90;4.80;;;;;;;2.68;100.00;100890.15;109385;1253;72732;-62
2023/12/19 02:51:19;;;;;;;9.60;6.00;;;;;;;2.70;100.00;100894.86;109377;1253;59398;-61
2023/12/19 02:53:47;;;;;;;9.10;5.00;;;;;;;2.71;100.00;100892.57;109159;1253;60041;-62
2023/12/19 02:56:15;;;;;;;7.60;4.80;;;;;;;2.71;100.00;100892.84;109384;1253;75494;-62
2023/12/19 02:58:42;;;;;;;7.50;4.80;;;;;;;2.73;100.00;100893.27;109419;1253;67503;-62
2023/12/19 03:01:10;;;;;;;9.00;5.40;;;;;;;2.73;100.00;100894.78;109359;1253;72749;-62
2023/12/19 03:03:41;;;;;;;8.40;5.20;;;;;;;2.74;100.00;100896.77;109406;1253;60156;-61
2023/12/19 03:06:09;;;;;;;;;;;;;;;2.75;100.00;100898.69;109351;1253;59516;-61
2023/12/19 03:08:37;;;;;;;7.50;4.70;;;;;;;2.77;100.00;100897.55;109412;1252;73980;-61
2023/12/19 03:11:04;;;;;;;8.50;5.20;;;;;;;2.77;100.00;100899.14;109443;1253;65302;-61
2023/12/19 03:13:32;;;;;;;7.50;5.00;;;;;;;2.76;100.00;100901.04;109342;1253;72394;-61
2023/12/19 03:16:00;;;;;;;7.30;4.30;;;;;;;2.78;100.00;100899.55;109372;1253;59158;-61
2023/12/19 03:18:28;;;;;;;8.30;4.70;;;;;;;2.79;100.00;100899.44;109370;1253;60096;-62
2023/12/19 03:20:56;;;;;;;7.70;4.40;;;;;;;2.79;100.00;100899.06;109371;1253;72831;-61
2023/12/19 03:23:24;;;;;;;8.50;4.90;;;;;;;2.83;100.00;100894.88;109408;1252;66229;-61
2023/12/19 03:25:51;;;;;;;8.00;4.90;;;;;;;2.83;100.00;100893.30;109423;1253;72787;-61
2023/12/19 03:28:19;;;;;;;7.40;4.10;;;;;;;2.84;100.00;100890.10;109344;1253;60534;-62
2023/12/19 03:30:46;;;;;;;8.40;5.00;;;;;;;2.85;100.00;100890.09;109395;1253;58929;-61
2023/12/19 03:33:14;;;;;;;7.50;4.50;;;;;;;2.87;100.00;100889.75;109374;1253;74685;-61
2023/12/19 03:35:42;;;;;;;8.50;5.30;;;;;;;2.86;100.00;100890.83;109381;1253;65654;-62
2023/12/19 03:38:11;;;;;;;9.60;6.10;;;;;;;2.87;100.00;100901.08;109441;1253;72472;-63
2023/12/19 03:40:39;;;;;;;9.00;6.20;;;;;;;2.91;100.00;100904.88;109392;1253;59632;-62
2023/12/19 03:43:08;;;;;;;10.50;6.40;;;;;;;2.92;100.00;100902.02;109400;1253;58936;-62
2023/12/19 03:45:35;;;;;;;12.80;7.10;;;;;;;2.94;100.00;100901.57;109367;1253;75119;-62
2023/12/19 03:48:03;;;;;;;10.10;6.60;;;;;;;2.96;100.00;100904.55;109431;1253;66953;-61
2023/12/19 03:50:31;;;;;;;12.70;7.80;;;;;;;2.98;100.00;100913.98;109342;1253;73276;-61
2023/12/19 03:52:59;;;;;;;12.50;6.90;;;;;;;2.96;100.00;100911.17;109370;1253;59668;-61
2023/12/19 03:55:26;;;;;;;10.60;7.00;;;;;;;2.97;100.00;100906.00;109383;1253;59578;-61
2023/12/19 03:57:54;;;;;;;10.30;6.70;;;;;;;2.98;100.00;100899.73;109378;1252;74647;-61
2023/12/19 04:00:21;;;;;;;9.40;6.30;;;;;;;2.96;100.00;100894.77;109376;1253;66972;-63
2023/12/19 04:02:49;;;;;;;11.40;7.90;;;;;;;2.95;100.00;100893.91;109383;1252;72783;-62
2023/12/19 04:05:17;;;;;;;14.00;8.50;;;;;;;2.95;100.00;100897.36;109369;1253;60981;-62
2023/12/19 04:07:44;;;;;;;9.00;6.00;;;;;;;2.98;100.00;100902.83;109381;1252;60093;-61
2023/12/19 04:10:12;;;;;;;8.70;5.80;;;;;;;2.95;100.00;100908.33;109394;1253;74706;-61
2023/12/19 04:12:40;;;;;;;9.10;5.80;;;;;;;2.95;100.00;100913.33;109326;1253;65921;-62
2023/12/19 04:15:09;;;;;;;9.80;6.20;;;;;;;2.95;100.00;100916.77;109374;1253;71439;-62
2023/12/19 04:17:36;;;;;;;10.10;5.50;;;;;;;2.97;100.00;100915.92;109394;1254;58991;-61
2023/12/19 04:20:04;;;;;;;9.70;6.20;;;;;;;3.00;100.00;100922.02;109434;1253;59398;-61
2023/12/19 04:22:32;;;;;;;9.00;5.70;;;;;;;3.04;100.00;100927.38;109365;1253;74697;-62
2023/12/19 04:25:00;;;;;;;10.60;6.10;;;;;;;3.05;100.00;100931.80;109378;1253;67391;-61
2023/12/19 04:27:28;;;;;;;11.00;7.00;;;;;;;3.07;100.00;100932.66;109400;1253;71140;-61
2023/12/19 04:29:56;;;;;;;9.20;6.50;;;;;;;3.03;100.00;100927.52;109407;1252;59310;-61
2023/12/19 04:32:24;;;;;;;11.60;6.20;;;;;;;2.98;100.00;100925.50;109381;1253;59012;-62
2023/12/19 04:34:52;;;;;;;8.90;5.70;;;;;;;2.98;100.00;100926.85;109354;1252;74682;-61
2023/12/19 04:37:19;;;;;;;8.20;5.50;;;;;;;2.97;100.00;100929.18;109408;1253;66971;-61
2023/12/19 04:39:47;;;;;;;8.90;5.50;;;;;;;2.97;100.00;100929.48;109381;1253;72712;-62
2023/12/19 04:42:17;;;;;;;8.80;5.90;;;;;;;2.96;100.00;100928.84;109395;1253;61118;-61
2023/12/19 04:44:48;;;;;;;9.10;5.60;;;;;;;2.96;100.00;100931.09;109412;1253;59395;-60
2023/12/19 04:47:15;;;;;;;8.90;5.80;;;;;;;3.00;100.00;100932.86;109449;1253;74772;-61
2023/12/19 04:49:43;;;;;;;9.10;6.40;;;;;;;3.01;100.00;100933.48;109370;1253;65651;-61
2023/12/19 04:52:11;;;;;;;9.60;6.10;;;;;;;3.01;100.00;100937.06;109404;1252;72774;-61
2023/12/19 04:54:38;;;;;;;8.50;5.30;;;;;;;3.01;100.00;100930.52;109359;1253;61704;-61
2023/12/19 04:57:06;;;;;;;9.80;6.40;;;;;;;3.02;100.00;100922.43;109378;1257;58905;-61
2023/12/19 04:59:34;;;;;;;9.20;5.90;;;;;;;3.02;100.00;100926.71;109392;1254;75192;-62
2023/12/19 05:02:03;;;;;;;9.60;5.60;;;;;;;3.03;100.00;100938.66;109375;1253;65618;-63
2023/12/19 05:04:31;;;;;;;9.60;6.20;;;;;;;3.06;100.00;100939.61;109349;1252;73790;-62
2023/12/19 05:06:59;;;;;;;9.70;5.80;;;;;;;3.02;100.00;100948.86;109394;1253;60893;-61
2023/12/19 05:09:26;;;;;;;10.10;5.70;;;;;;;3.01;100.00;100956.77;109446;1253;59052;-62
2023/12/19 05:11:54;;;;;;;8.50;4.90;;;;;;;3.02;100.00;100964.50;109359;1253;74752;-62
2023/12/19 05:14:21;;;;;;;6.60;4.70;;;;;;;3.02;100.00;100967.90;109351;1254;67218;-62
2023/12/19 05:16:49;;;;;;;7.00;4.60;;;;;;;3.02;100.00;100978.86;109344;1252;71600;-63
2023/12/19 05:19:17;;;;;;;8.60;5.50;;;;;;;3.02;100.00;100982.51;109364;1253;60959;-62
2023/12/19 05:21:44;;;;;;;8.50;5.60;;;;;;;3.03;100.00;100982.77;109359;1253;60204;-62
2023/12/19 05:24:12;;;;;;;9.00;6.40;;;;;;;3.05;100.00;100974.55;109356;1257;73452;-62
2023/12/19 05:26:40;;;;;;;9.40;6.30;;;;;;;3.08;100.00;100977.73;109480;1253;66841;-62
2023/12/19 05:29:07;;;;;;;8.70;5.80;;;;;;;3.11;100.00;100978.16;109370;1253;71421;-63
2023/12/19 05:31:35;;;;;;;9.70;5.90;;;;;;;3.11;100.00;100979.58;109385;1253;59031;-62
2023/12/19 05:34:03;;;;;;;9.10;6.00;;;;;;;3.12;100.00;100980.69;109424;1252;60086;-62
2023/12/19 05:36:33;;;;;;;8.60;5.80;;;;;;;3.13;100.00;100984.40;109359;1252;75460;-63
2023/12/19 05:39:07;;;;;;;8.20;5.50;;;;;;;3.15;100.00;100992.64;109340;1253;66943;-63
2023/12/19 05:41:34;;;;;;;9.80;6.10;;;;;;;3.16;100.00;100997.88;109353;1253;71262;-63
2023/12/19 05:44:02;;;;;;;9.60;6.40;;;;;;;3.19;100.00;101003.36;109327;1253;59397;-63
2023/12/19 05:46:31;;;;;;;9.60;5.80;;;;;;;3.20;100.00;100998.84;109362;1254;60194;-62
2023/12/19 05:48:59;;;;;;;8.50;5.70;;;;;;;3.23;100.00;100996.39;109368;1252;74773;-63
2023/12/19 05:51:26;;;;;;;8.70;6.20;;;;;;;3.24;100.00;100992.84;109383;1254;66883;-63
2023/12/19 05:53:56;;;;;;;8.70;6.10;;;;;;;3.25;100.00;100988.46;109360;1253;72939;-64
2023/12/19 05:56:24;;;;;;;11.60;7.60;;;;;;;3.24;100.00;100986.33;109314;1256;59042;-63
2023/12/19 05:58:52;;;;;;;10.50;6.90;;;;;;;3.21;100.00;100989.11;109343;1254;60267;-63
2023/12/19 06:01:19;;;;;;;12.20;7.80;;;;;;;3.20;100.00;100994.37;109360;1256;74768;-62
2023/12/19 06:03:47;;;;;;;10.90;7.20;;;;;;;3.23;100.00;100994.17;109353;1254;65508;-62
2023/12/19 06:06:15;;;;;;;10.90;7.30;;;;;;;3.26;100.00;100996.80;109306;1253;73413;-63
2023/12/19 06:08:43;;;;;;;12.30;8.20;;;;;;;3.29;100.00;100998.83;109362;1252;59190;-63
2023/12/19 06:11:10;;;;;;;12.60;8.40;;;;;;;3.30;100.00;101006.68;109377;1253;60145;-63
2023/12/19 06:13:38;;;;;;;13.40;9.60;;;;;;;3.31;100.00;101013.24;109378;1253;73454;-63
2023/12/19 06:16:06;;;;;;;12.60;8.50;;;;;;;3.33;100.00;101018.41;109323;1253;65677;-64
2023/12/19 06:18:33;;;;;;;11.90;7.90;;;;;;;3.36;100.00;101025.95;109366;1253;73262;-63
2023/12/19 06:21:01;;;;;;;12.50;8.20;;;;;;;3.35;100.00;101032.52;109326;1253;60476;-62
2023/12/19 06:23:29;;;;;;;10.70;7.00;;;;;;;3.35;100.00;101039.55;109392;1254;59044;-63
2023/12/19 06:25:57;;;;;;;9.50;6.30;;;;;;;3.36;100.00;101036.20;109415;1252;73962;-63
2023/12/19 06:28:24;;;;;;;13.00;6.50;;;;;;;3.36;100.00;101033.45;109327;1254;66803;-64
2023/12/19 06:30:52;;;;;;;10.90;7.00;;;;;;;3.37;100.00;101033.95;109376;1254;71412;-63
2023/12/19 06:33:20;;;;;;;11.60;7.50;;;;;;;3.39;100.00;101039.27;109331;1253;59953;-63
2023/12/19 06:35:49;;;;;;;11.00;7.90;;;;;;;3.42;100.00;101043.70;109325;1252;58885;-63
2023/12/19 06:38:16;;;;;;;11.60;7.40;;;;;;;3.43;100.00;101040.51;109347;1254;73934;-63
2023/12/19 06:40:45;;;;;;;11.10;7.70;;;;;;;3.46;100.00;101043.77;109314;1254;64842;-64
2023/12/19 06:43:12;;;;;;;9.90;6.20;;;;;;;3.48;100.00;101039.59;109341;1253;72719;-63
2023/12/19 06:45:40;;;;;;;11.10;6.40;;;;;;;3.52;100.00;101036.56;109329;1252;60926;-64
2023/12/19 06:48:08;;;;;;;9.80;6.90;;;;;;;3.57;100.00;101036.36;109387;1253;60566;-63
2023/12/19 06:50:37;;;;;;;9.40;6.70;;;;;;;3.62;100.00;101036.49;109329;1253;74727;-65
2023/12/19 06:53:04;;;;;;;7.70;5.70;;;;;;;3.67;100.00;101036.64;109269;1254;66927;-64
2023/12/19 06:55:32;;;;;;;9.70;6.50;;;;;;;3.71;100.00;101035.94;109372;1251;72636;-63
2023/12/19 06:58:00;;;;;;;7.80;5.60;;;;;;;3.74;100.00;101030.42;109361;1253;59656;-63
2023/12/19 07:00:29;;;;;;;11.50;6.90;;;;;;;3.75;100.00;101025.34;109344;1254;59737;-65
2023/12/19 07:02:57;;;;;;;9.40;6.80;;;;;;;3.75;100.00;101023.63;109352;1254;73442;-63
2023/12/19 07:05:25;;;;;;;11.80;8.30;;;;;;;3.75;100.00;101022.77;109458;1254;66834;-63
2023/12/19 07:07:53;;;;;;;11.20;8.40;;;;;;;3.77;100.00;101021.42;109359;1253;72693;-63
2023/12/19 07:10:20;;;;;;;13.30;8.50;;;;;;;3.77;100.00;101022.98;109294;1254;59651;-63
2023/12/19 07:12:48;;;;;;;10.40;7.40;;;;;;;3.75;100.00;101026.34;109349;1254;59444;-63
2023/12/19 07:15:16;;;;;;;9.80;6.80;;;;;;;3.75;100.00;101027.90;109341;1253;74747;-63
2023/12/19 07:17:43;;;;;;;10.00;6.70;;;;;;;3.77;100.00;101032.39;109339;1254;65632;-63
2023/12/19 07:20:11;;;;;;;8.60;6.20;;;;;;;3.77;100.00;101034.65;109360;1253;71435;-63
2023/12/19 07:22:40;;;;;;;8.10;5.60;;;;;;;3.79;100.00;101037.89;109310;1254;60531;-62
2023/12/19 07:25:09;;;;;;;9.20;6.90;;;;;;;3.80;100.00;101045.89;109343;1253;62160;-62
2023/12/19 07:27:37;;;;;;;7.90;5.60;;;;;;;3.81;100.00;101044.65;109357;1253;74589;-61
2023/12/19 07:30:07;;;;;;;10.00;5.60;;;;;;;3.82;100.00;101050.57;109373;1254;66949;-63
2023/12/19 07:32:35;;;;;;;8.00;5.40;;;;;;;3.82;100.00;101056.58;109340;1254;71020;-62
2023/12/19 07:35:04;;;;;;;12.90;6.30;;;;;;;3.84;100.00;101065.38;109362;1253;60460;-63
2023/12/19 07:37:32;;;;;;;8.10;6.20;;;;;;;3.88;100.00;101064.18;109389;1254;59400;-62
2023/12/19 07:40:02;;;;;;;8.00;6.10;;;;;;;3.95;100.00;101062.45;109335;1253;74669;-63
2023/12/19 07:42:30;;;;;;;8.50;5.90;;;;;;;4.01;100.00;101062.84;109342;1253;66910;-63
2023/12/19 07:44:59;;;;;;;8.30;6.60;;;;;;;4.09;100.00;101065.96;109359;1253;72784;-62
2023/12/19 07:47:26;;;;;;;7.80;6.00;;;;;;;4.17;100.00;101067.25;109314;1254;60975;-63
2023/12/19 07:49:54;;;;;;;8.50;6.50;;;;;;;4.24;100.00;101073.56;109316;1252;58885;-64
2023/12/19 07:52:22;;;;;;;8.50;6.30;;;;;;;4.28;100.00;101079.27;109182;1253;275764;-63
2023/12/19 07:54:49;;;;;;;8.50;5.70;;;;;;;4.33;100.00;101088.70;109392;1253;65789;-62
2023/12/19 07:57:17;;;;;;;9.00;6.20;;;;;;;4.34;100.00;101087.23;109345;1254;71445;-63
2023/12/19 07:59:46;;;;;;;7.80;5.70;;;;;;;4.33;100.00;101089.60;109356;1253;60475;-65
2023/12/19 08:02:14;;;;;;;8.50;5.70;;;;;;;4.32;100.00;101081.19;109325;1254;60067;-63
2023/12/19 08:04:42;;;;;;;7.60;5.60;;;;;;;4.33;100.00;101072.70;109366;1254;74914;-63
2023/12/19 08:07:10;;;;;;;6.70;4.50;;;;;;;4.37;100.00;101067.17;109372;1253;67052;-63
2023/12/19 08:09:38;;;;;;;7.50;5.30;;;;;;;4.44;100.00;101066.35;109445;1251;72741;-63
2023/12/19 08:12:06;;;;;;;7.50;5.10;;;;;;;4.49;100.00;101060.76;109280;1252;62234;-63
2023/12/19 08:14:33;;;;;;;8.40;5.30;;;;;;;4.53;100.00;101057.33;109314;1254;60218;-63
2023/12/19 08:17:01;;;;;;;7.70;5.50;;;;;;;4.57;100.00;101050.97;109369;1253;75145;-64
2023/12/19 08:19:29;;;;;;;6.30;5.10;;;;;;;4.59;100.00;101046.12;109380;1252;65643;-63
2023/12/19 08:21:58;;;;;;;7.50;5.20;;;;;;;4.64;100.00;101046.94;109310;1253;71366;-64
2023/12/19 08:24:25;;;;;;;9.20;6.10;;;;;;;4.71;100.00;101034.88;109314;1253;60044;-63
2023/12/19 08:26:53;;;;;;;8.10;6.20;;;;;;;4.75;100.00;101028.83;109389;1252;60017;-64
2023/12/19 08:29:21;;;;;;;6.70;5.70;;;;;;;4.80;100.00;101018.36;109307;1252;74336;-64
2023/12/19 08:31:49;;;;;;;7.00;5.00;;;;;;;4.91;100.00;101010.98;109443;1251;66363;-63
2023/12/19 08:34:17;;;;;;;7.50;5.20;;;;;;;5.02;100.00;100999.73;109335;1252;72674;-63
2023/12/19 08:36:44;;;;;;;8.00;5.80;;;;;;;5.10;100.00;100993.86;109305;1252;60466;-63
2023/12/19 08:39:13;;;;;;;8.10;5.70;;;;;;;5.17;100.00;100987.14;109350;1252;60099;-63
2023/12/19 08:41:45;;;;;;;8.50;5.80;;;;;;;5.22;100.00;100984.77;109352;1253;73415;-64
2023/12/19 08:44:13;;;;;;;7.10;5.00;;;;;;;5.24;100.00;100984.80;109300;1253;67355;-63
2023/12/19 08:46:40;;;;;;;5.90;4.30;;;;;;;5.25;100.00;100986.55;109313;1253;73167;-63
2023/12/19 08:49:08;;;;;;;6.60;4.30;;;;;;;5.33;100.00;100990.69;109279;1253;60525;-63
2023/12/19 08:51:36;;;;;;;6.60;5.00;;;;;;;5.43;100.00;100996.61;109317;1252;61482;-64
2023/12/19 08:54:04;;;;;;;6.00;4.90;;;;;;;5.50;100.00;100996.65;109339;1253;75138;-65
2023/12/19 08:56:32;;;;;;;7.00;5.20;;;;;;;5.62;100.00;100998.23;109313;1253;67265;-64
2023/12/19 08:59:00;;;;;;;6.40;4.10;;;;;;;5.72;100.00;100993.92;109325;1253;73692;-64
2023/12/19 09:01:28;;;;;;;7.50;4.20;;;;;;;5.83;100.00;100988.14;109342;1253;60467;-63
2023/12/19 09:03:56;;;;;;;6.90;4.60;;;;;;;5.84;100.00;100982.80;109280;1252;62290;-64
2023/12/19 09:06:24;;;;;;;7.10;4.20;;;;;;;5.84;100.00;100978.55;109366;1253;74750;-64
2023/12/19 09:08:51;;;;;;;7.10;4.60;;;;;;;5.86;100.00;100981.33;109328;1253;67155;-64
2023/12/19 09:11:19;;;;;;;6.40;4.70;;;;;;;5.86;100.00;100983.50;109338;1253;74717;-63
2023/12/19 09:13:47;;;;;;;7.20;5.60;;;;;;;5.84;100.00;100980.79;109275;1252;61737;-61
2023/12/19 09:16:15;;;;;;;7.50;4.90;;;;;;;5.84;100.00;100981.80;109389;1251;59095;-61
2023/12/19 09:18:42;;;;;;;6.10;4.30;;;;;;;5.83;100.00;100987.77;109286;1253;76840;-63
2023/12/19 09:21:11;;;;;;;6.40;4.60;;;;;;;5.78;100.00;100986.13;109341;1252;68303;-63
2023/12/19 09:23:39;;;;;;;6.50;4.90;;;;;;;5.70;100.00;100984.27;109290;1253;72743;-63
2023/12/19 09:26:08;;;;;;;5.50;4.10;;;;;;;5.61;100.00;100980.70;109329;1253;64111;-62
2023/12/19 09:28:36;;;;;;;6.20;4.60;;;;;;;5.57;100.00;100971.23;109338;1252;60113;-62
2023/12/19 09:31:07;;;;;;;6.10;4.20;;;;;;;5.55;100.00;100965.33;109378;1251;74795;-62
2023/12/19 09:33:38;;;;;;;4.70;3.70;;;;;;;5.57;100.00;100962.06;109300;1253;65671;-63
2023/12/19 09:36:07;;;;;;;5.60;3.60;;;;;;;5.61;100.00;100959.52;109386;1253;75301;-63
2023/12/19 09:38:36;;;;;;;4.80;3.10;;;;;;;5.67;100.00;100952.67;109341;1252;60354;-63
2023/12/19 09:41:04;;;;;;;6.40;4.00;;;;;;;5.73;100.00;100948.64;109245;1253;59491;-62
2023/12/19 09:43:33;;;;;;;8.40;4.70;;;;;;;5.79;100.00;100944.98;109277;1253;75217;-63
2023/12/19 09:46:01;;;;;;;9.90;5.10;;;;;;;5.85;100.00;100939.80;109331;1253;70637;-62
2023/12/19 09:48:32;;;;;;;10.20;6.10;;;;;;;5.93;100.00;100933.75;109307;1252;71843;-62
2023/12/19 09:51:04;;;;;;;9.70;5.70;;;;;;;6.00;100.00;100931.06;109266;1253;61116;-61
2023/12/19 09:53:32;;;;;;;8.10;4.30;;;;;;;6.06;100.00;100924.48;109257;1253;62969;-62
2023/12/19 09:56:07;;;;;;;7.00;3.70;;;;;;;6.06;100.00;100920.33;109334;1253;77795;-62
2023/12/19 09:58:35;;;;;;;6.30;3.90;;;;;;;6.05;100.00;100921.65;109310;1253;69143;-61
2023/12/19 10:01:03;;;;;;;5.10;2.80;;;;;;;6.04;100.00;100923.49;109208;1253;73771;-62
2023/12/19 10:03:31;;;;;;;5.20;3.00;;;;;;;6.01;100.00;100914.45;109359;1251;59084;-62
2023/12/19 10:05:59;;;;;;;5.20;3.50;;;;;;;6.00;100.00;100908.84;109321;1253;58907;-61
2023/12/19 10:08:26;;;;;;;8.30;5.30;;;;;;;6.00;100.00;100903.85;109335;1253;76941;-61
2023/12/19 10:10:56;;;;;;;4.70;3.00;;;;;;;6.01;100.00;100904.48;109314;1253;68775;-62
2023/12/19 10:13:33;;;;;;;3.60;2.50;;;;;;;6.02;100.00;100905.23;109290;1253;72898;-61
2023/12/19 10:16:08;;;;;;;4.20;2.40;;;;;;;6.05;100.00;100898.59;109277;1252;59479;-61
2023/12/19 10:18:56;;;;;;;4.10;2.40;;;;;;;6.08;100.00;100893.46;109345;1252;61128;-61
2023/12/19 10:21:28;;;;;;;5.00;3.10;;;;;;;6.08;100.00;100888.61;109319;1253;77654;-61
2023/12/19 10:24:11;;;;;;;5.10;3.20;;;;;;;6.10;100.00;100888.42;109345;1252;69144;-61
2023/12/19 10:26:40;;;;;;;4.80;3.20;;;;;;;6.14;100.00;100885.70;109381;1252;75480;-61
2023/12/19 10:29:07;;;;;;;5.50;2.40;;;;;;;6.19;100.00;100878.19;109329;1252;58953;-61
2023/12/19 10:31:35;;;;;;;3.90;1.90;;;;;;;6.22;100.00;100872.16;109356;1253;60141;-61
2023/12/19 10:34:04;;;;;;;3.20;1.60;;;;;;;6.23;100.00;100869.00;109321;1253;74707;-61
2023/12/19 10:36:34;;;;;;;4.30;2.30;;;;;;;6.26;100.00;100861.48;109302;1253;69192;-61
2023/12/19 10:39:05;;;;;;;4.00;2.20;;;;;;;6.30;100.00;100851.92;109322;1253;73724;-61
2023/12/19 10:41:36;;;;;;;4.60;2.90;;;;;;;6.37;100.00;100844.22;109344;1253;61049;-61
2023/12/19 10:44:04;;;;;;;4.30;2.50;;;;;;;6.40;100.00;100833.24;109337;1253;61746;-61
2023/12/19 10:46:32;;;;;;;3.70;2.10;;;;;;;6.39;100.00;100829.57;109268;1253;74492;-61
2023/12/19 10:49:01;;;;;;;4.20;2.70;;;;;;;6.36;100.00;100822.38;109317;1253;69709;-61
2023/12/19 10:51:33;;;;;;;4.10;2.70;;;;;;;6.31;100.00;100817.11;109328;1253;72769;-60
2023/12/19 10:54:10;;;;;;;4.10;2.70;;;;;;;6.31;100.00;100818.36;109390;1251;62427;-61
2023/12/19 10:56:45;;;;;;;5.40;3.30;;;;;;;6.35;100.00;100828.59;109338;1251;61973;-61
2023/12/19 10:59:19;;;;;;;4.00;2.40;;;;;;;6.41;100.00;100845.04;109304;1252;77260;-60
2023/12/19 11:01:47;;;;;;;4.60;2.80;;;;;;;6.46;100.00;100849.09;109330;1253;67629;-60
2023/12/19 11:04:19;;;;;;;6.40;3.50;;;;;;;6.51;100.00;100850.66;109313;1253;72768;-61
2023/12/19 11:06:50;;;;;;;4.70;2.50;;;;;;;6.57;100.00;100853.91;109262;1251;58939;-61
2023/12/19 11:09:22;;;;;;;5.20;3.00;;;;;;;6.62;100.00;100853.15;109324;1252;61067;-61
2023/12/19 11:11:50;;;;;;;4.50;2.70;;;;;;;6.63;100.00;100846.33;109265;1253;75761;-62
2023/12/19 11:14:24;;;;;;;5.00;3.10;;;;;;;6.60;100.00;100842.80;109316;1253;66425;-61
2023/12/19 11:17:02;;;;;;;5.10;3.20;;;;;;;6.55;100.00;100846.71;109232;1253;74817;-61
2023/12/19 11:20:09;;;;;;;7.60;4.80;;;;;;;6.50;100.00;100839.95;109326;1253;61028;-61
2023/12/19 11:22:40;;;;;;;8.70;5.50;;;;;;;6.39;100.00;100840.45;109345;1253;62389;-61